Portada
METAR-TAF:

METAR-TAF

Aeropuertos :

Aeropuerto Internacional Rey Mswati III

Manzini, Suazilandia

latitud: 26-21-24S, longitud: 031-43-01E, altitud: 324 m

Observación

El informe se hizo hace 54 minutos, a las 06:00 UTC
Viento 3 kt del norte
Temperatura 19°C
Humedad 94%
Presión 1025 hPa
Visibilidad 10 km o más
Nubes dispersas a una altura de 1800 ft

METAR: FDSK 160600Z 01003KT 9999 SCT018 19/18 Q1025 NOSIG

Hora: 08:54 (06:54 UTC)

Pronóstico

El informe se hizo hace 1 hora y 54 minutos, a las 05:00 UTC
Pronóstico válido del 16 a las 06 UTC al 16 a las 12 UTC
Viento 7 kt del noreste
Visibilidad 10 km o más
Nubes dispersas a una altura de 3500 ft

TAF: FDSK 160500Z 1606/1612 04007KT 9999 SCT035

Observaciones y pronósticos meteorológicos de más de 4000 aeropuertos (mensajes METAR y TAF).

Los puntos amarillos y rojos representan las estaciones disponibles.

Ponga el ratón en el punto deseado para ver el nombre de la estación.

Haga clic para ver las observaciones y los pronósticos meteorológicos.

Para cambiar el mapa : haga clic en los botones verdes con una cruz de color negro para hacer un zoom, en el botón verde con un guión para alejar o en las flechas verdes para mapas adyacentes.


METAR-TAF: